Time,TemperatureF,DewpointF,PressureIn,WindDirection,WindDirectionDegrees,WindSpeedMPH,WindSpeedGustMPH,Humidity,HourlyPrecipIn,Conditions,Clouds,dailyrainin,SolarRadiationWatts/m^2,SoftwareType,DateUTC
2013-09-01 00:04:00,72.8,54.1,30.05,South,170,0.0,-999.0,52,0.00,,,0.00,1,WeatherHawk,2013-09-01 04:04:00,
2013-09-01 00:09:00,73.2,54.0,30.04,SSE,160,1.0,-999.0,51,0.00,,,0.00,0,WeatherHawk,2013-09-01 04:09:00,
2013-09-01 00:14:00,72.9,54.2,30.05,SSW,195,0.0,-999.0,52,0.00,,,0.00,0,WeatherHawk,2013-09-01 04:14:00,
2013-09-01 00:19:00,73.1,54.4,30.05,South,171,4.0,-999.0,52,0.00,,,0.00,0,WeatherHawk,2013-09-01 04:19:00,
2013-09-01 00:24:00,73.0,54.3,30.04,South,170,3.0,-999.0,52,0.00,,,0.00,0,WeatherHawk,2013-09-01 04:24:00,
2013-09-01 00:29:00,73.1,53.9,30.05,ESE,115,0.0,-999.0,51,0.00,,,0.00,1,WeatherHawk,2013-09-01 04:29:00,
2013-09-01 00:34:00,73.0,54.3,30.05,SE,134,0.0,-999.0,52,0.00,,,0.00,0,WeatherHawk,2013-09-01 04:34:00,
2013-09-01 00:39:00,72.8,54.1,30.05,SW,223,0.0,-999.0,52,0.00,,,0.00,0,WeatherHawk,2013-09-01 04:39:00,
2013-09-01 00:44:00,73.1,54.4,30.03,South,173,0.0,-999.0,52,0.00,,,0.00,0,WeatherHawk,2013-09-01 04:44:00,
2013-09-01 00:49:00,72.1,54.0,30.03,East,90,0.0,-999.0,53,0.00,,,0.00,0,WeatherHawk,2013-09-01 04:49:00,
2013-09-01 00:54:00,72.8,54.2,30.04,South,185,0.0,-999.0,52,0.00,,,0.00,0,WeatherHawk,2013-09-01 04:54:00,
2013-09-01 00:59:00,72.9,54.3,30.03,South,185,0.0,-999.0,52,0.00,,,0.00,0,WeatherHawk,2013-09-01 04:59:00,
2013-09-01 01:04:00,72.7,54.1,30.02,SW,233,0.0,-999.0,52,0.00,,,0.00,1,WeatherHawk,2013-09-01 05:04:00,
2013-09-01 01:09:00,72.8,54.7,30.04,West,259,0.0,-999.0,53,0.00,,,0.00,1,WeatherHawk,2013-09-01 05:09:00,
2013-09-01 01:14:00,72.6,54.4,30.03,SW,221,0.0,-999.0,53,0.00,,,0.00,0,WeatherHawk,2013-09-01 05:14:00,
2013-09-01 01:19:00,72.6,54.9,30.03,SSW,207,0.0,-999.0,54,0.00,,,0.00,1,WeatherHawk,2013-09-01 05:19:00,
2013-09-01 01:24:00,72.6,55.0,30.02,WSW,238,0.0,-999.0,54,0.00,,,0.00,0,WeatherHawk,2013-09-01 05:24:00,
2013-09-01 01:29:00,72.5,55.4,30.03,WSW,237,0.0,-999.0,55,0.00,,,0.00,0,WeatherHawk,2013-09-01 05:29:00,
2013-09-01 01:34:00,72.2,55.2,30.04,WSW,237,0.0,-999.0,55,0.00,,,0.00,0,WeatherHawk,2013-09-01 05:34:00,
2013-09-01 01:39:00,71.9,55.9,30.04,SW,214,0.0,-999.0,57,0.00,,,0.00,0,WeatherHawk,2013-09-01 05:39:00,
2013-09-01 01:49:00,70.6,56.9,30.03,WSW,257,0.0,-999.0,62,0.00,,,0.00,0,WeatherHawk,2013-09-01 05:49:00,
2013-09-01 01:54:00,70.3,57.1,30.05,WSW,256,0.0,-999.0,63,0.00,,,0.00,0,WeatherHawk,2013-09-01 05:54:00,
2013-09-01 01:59:00,70.1,57.8,30.04,NNW,337,0.0,-999.0,65,0.00,,,0.00,0,WeatherHawk,2013-09-01 05:59:00,
2013-09-01 02:04:00,70.2,58.3,30.04,NNW,348,0.0,-999.0,66,0.00,,,0.00,0,WeatherHawk,2013-09-01 06:04:00,
2013-09-01 02:09:00,69.9,58.4,30.04,NNW,348,0.0,-999.0,67,0.00,,,0.00,0,WeatherHawk,2013-09-01 06:09:00,
2013-09-01 02:14:00,69.6,58.6,30.04,NNW,348,0.0,-999.0,68,0.00,,,0.00,0,WeatherHawk,2013-09-01 06:14:00,
2013-09-01 02:19:00,69.9,59.7,30.05,NNW,348,0.0,-999.0,70,0.00,,,0.00,0,WeatherHawk,2013-09-01 06:19:00,
2013-09-01 02:24:00,69.7,59.5,30.03,NNW,348,0.0,-999.0,70,0.00,,,0.00,0,WeatherHawk,2013-09-01 06:24:00,
2013-09-01 02:30:00,69.8,60.0,30.04,NNW,348,0.0,-999.0,71,0.00,,,0.00,0,WeatherHawk,2013-09-01 06:30:00,
2013-09-01 02:39:00,69.3,59.5,30.05,NNW,348,0.0,-999.0,71,0.00,,,0.00,0,WeatherHawk,2013-09-01 06:39:00,
2013-09-01 02:44:00,69.3,59.8,30.05,NNW,348,0.0,-999.0,72,0.00,,,0.00,0,WeatherHawk,2013-09-01 06:44:00,
2013-09-01 02:49:00,69.3,60.2,30.04,NNW,348,0.0,-999.0,73,0.00,,,0.00,0,WeatherHawk,2013-09-01 06:49:00,
2013-09-01 02:54:00,69.2,60.5,30.04,NNW,348,0.0,-999.0,74,0.00,,,0.00,0,WeatherHawk,2013-09-01 06:54:00,
2013-09-01 02:59:00,68.8,60.2,30.04,NNW,348,0.0,-999.0,74,0.00,,,0.00,0,WeatherHawk,2013-09-01 06:59:00,
2013-09-01 03:04:00,69.4,61.1,30.05,NNW,348,0.0,-999.0,75,0.00,,,0.00,0,WeatherHawk,2013-09-01 07:04:00,
2013-09-01 03:09:00,69.5,61.6,30.04,NNW,348,0.0,-999.0,76,0.00,,,0.00,0,WeatherHawk,2013-09-01 07:09:00,
2013-09-01 03:14:00,69.1,61.2,30.05,NNW,348,0.0,-999.0,76,0.00,,,0.00,0,WeatherHawk,2013-09-01 07:14:00,
2013-09-01 03:19:00,70.3,62.4,30.04,SSW,205,0.0,-999.0,76,0.00,,,0.00,1,WeatherHawk,2013-09-01 07:19:00,
2013-09-01 03:24:00,70.6,61.9,30.04,South,172,0.0,-999.0,74,0.00,,,0.00,0,WeatherHawk,2013-09-01 07:24:00,
2013-09-01 03:29:00,71.1,60.8,30.03,SE,124,2.0,-999.0,70,0.00,,,0.00,0,WeatherHawk,2013-09-01 07:29:00,
2013-09-01 03:34:00,70.4,58.5,30.05,SSW,193,0.0,-999.0,66,0.00,,,0.00,0,WeatherHawk,2013-09-01 07:34:00,
2013-09-01 03:39:00,70.7,59.2,30.04,South,169,0.0,-999.0,67,0.00,,,0.00,0,WeatherHawk,2013-09-01 07:39:00,
2013-09-01 03:44:00,70.4,58.9,30.03,South,170,0.0,-999.0,67,0.00,,,0.00,0,WeatherHawk,2013-09-01 07:44:00,
2013-09-01 03:49:00,69.4,58.0,30.03,SE,136,0.0,-999.0,67,0.00,,,0.00,0,WeatherHawk,2013-09-01 07:49:00,
2013-09-01 03:54:00,70.5,60.2,30.04,SSE,162,0.0,-999.0,70,0.00,,,0.00,0,WeatherHawk,2013-09-01 07:54:00,
2013-09-01 03:59:00,69.6,58.6,30.04,SSE,161,0.0,-999.0,68,0.00,,,0.00,0,WeatherHawk,2013-09-01 07:59:00,
2013-09-01 04:04:00,69.9,59.7,30.04,SSE,162,0.0,-999.0,70,0.00,,,0.00,1,WeatherHawk,2013-09-01 08:04:00,
2013-09-01 04:09:00,69.6,59.8,30.04,SSE,162,0.0,-999.0,71,0.00,,,0.00,0,WeatherHawk,2013-09-01 08:09:00,
2013-09-01 04:14:00,69.6,60.2,30.04,SSE,162,0.0,-999.0,72,0.00,,,0.00,0,WeatherHawk,2013-09-01 08:14:00,
2013-09-01 04:19:00,68.8,59.4,30.04,SSE,162,0.0,-999.0,72,0.00,,,0.00,0,WeatherHawk,2013-09-01 08:19:00,
2013-09-01 04:24:00,68.4,59.0,30.03,SSE,161,0.0,-999.0,72,0.00,,,0.00,0,WeatherHawk,2013-09-01 08:24:00,
2013-09-01 04:29:00,68.5,59.5,30.04,NE,46,0.0,-999.0,73,0.00,,,0.00,0,WeatherHawk,2013-09-01 08:29:00,
2013-09-01 04:34:00,69.3,61.0,30.04,NE,46,0.0,-999.0,75,0.00,,,0.00,0,WeatherHawk,2013-09-01 08:34:00,
2013-09-01 04:39:00,69.7,61.8,30.04,NE,46,0.0,-999.0,76,0.00,,,0.00,0,WeatherHawk,2013-09-01 08:39:00,
2013-09-01 04:44:00,70.0,61.7,30.04,WSW,252,0.0,-999.0,75,0.00,,,0.00,0,WeatherHawk,2013-09-01 08:44:00,
2013-09-01 04:49:00,69.8,59.9,30.03,SSE,157,0.0,-999.0,71,0.00,,,0.00,1,WeatherHawk,2013-09-01 08:49:00,
2013-09-01 04:54:00,69.6,59.4,30.04,SSE,157,0.0,-999.0,70,0.00,,,0.00,0,WeatherHawk,2013-09-01 08:54:00,
2013-09-01 04:59:00,69.2,59.0,30.04,SSE,147,0.0,-999.0,70,0.00,,,0.00,0,WeatherHawk,2013-09-01 08:59:00,
2013-09-01 05:04:00,69.8,60.0,30.03,SE,139,0.0,-999.0,71,0.00,,,0.00,0,WeatherHawk,2013-09-01 09:04:00,
2013-09-01 05:09:00,70.1,58.6,30.04,South,190,0.0,-999.0,67,0.00,,,0.00,0,WeatherHawk,2013-09-01 09:09:00,
2013-09-01 05:14:00,70.2,57.9,30.03,South,190,0.0,-999.0,65,0.00,,,0.00,0,WeatherHawk,2013-09-01 09:14:00,
2013-09-01 05:19:00,70.1,57.8,30.04,NNE,25,0.0,-999.0,65,0.00,,,0.00,0,WeatherHawk,2013-09-01 09:19:00,
2013-09-01 05:24:00,69.7,57.8,30.03,WNW,295,0.0,-999.0,66,0.00,,,0.00,0,WeatherHawk,2013-09-01 09:24:00,
2013-09-01 05:29:00,68.5,57.1,30.04,West,276,0.0,-999.0,67,0.00,,,0.00,0,WeatherHawk,2013-09-01 09:29:00,
2013-09-01 05:34:00,68.5,58.0,30.04,WSW,244,0.0,-999.0,69,0.00,,,0.00,0,WeatherHawk,2013-09-01 09:34:00,
2013-09-01 05:39:00,68.5,58.7,30.04,NNW,332,0.0,-999.0,71,0.00,,,0.00,0,WeatherHawk,2013-09-01 09:39:00,
2013-09-01 05:44:00,69.9,59.6,30.04,ESE,123,0.0,-999.0,70,0.00,,,0.00,0,WeatherHawk,2013-09-01 09:44:00,
2013-09-01 05:49:00,70.5,57.3,30.04,SSE,149,0.0,-999.0,63,0.00,,,0.00,0,WeatherHawk,2013-09-01 09:49:00,
2013-09-01 05:54:00,70.1,56.9,30.04,South,190,0.0,-999.0,63,0.00,,,0.00,0,WeatherHawk,2013-09-01 09:54:00,
2013-09-01 05:59:00,69.8,56.6,30.04,SSE,167,0.0,-999.0,63,0.00,,,0.00,0,WeatherHawk,2013-09-01 09:59:00,
2013-09-01 06:04:00,68.9,55.8,30.04,WNW,288,0.0,-999.0,63,0.00,,,0.00,0,WeatherHawk,2013-09-01 10:04:00,
2013-09-01 06:09:00,70.3,58.4,30.04,SE,128,0.0,-999.0,66,0.00,,,0.00,0,WeatherHawk,2013-09-01 10:09:00,
2013-09-01 06:14:00,70.0,56.8,30.04,ESE,115,0.0,-999.0,63,0.00,,,0.00,0,WeatherHawk,2013-09-01 10:14:00,
2013-09-01 06:19:00,70.6,56.9,30.04,SSW,192,0.0,-999.0,62,0.00,,,0.00,0,WeatherHawk,2013-09-01 10:19:00,
2013-09-01 06:24:00,70.1,56.5,30.05,South,190,0.0,-999.0,62,0.00,,,0.00,0,WeatherHawk,2013-09-01 10:24:00,
2013-09-01 06:29:00,69.5,55.9,30.04,South,187,0.0,-999.0,62,0.00,,,0.00,0,WeatherHawk,2013-09-01 10:29:00,
2013-09-01 06:34:00,68.5,56.3,30.04,South,187,0.0,-999.0,65,0.00,,,0.00,0,WeatherHawk,2013-09-01 10:34:00,
2013-09-01 06:39:00,68.8,57.8,30.04,South,187,0.0,-999.0,68,0.00,,,0.00,0,WeatherHawk,2013-09-01 10:39:00,
2013-09-01 06:44:00,69.0,58.4,30.05,ENE,71,0.0,-999.0,69,0.00,,,0.00,0,WeatherHawk,2013-09-01 10:44:00,
2013-09-01 06:49:00,68.5,57.9,30.05,North,9,0.0,-999.0,69,0.00,,,0.00,0,WeatherHawk,2013-09-01 10:49:00,
2013-09-01 06:54:00,69.3,59.1,30.05,East,96,0.0,-999.0,70,0.00,,,0.00,0,WeatherHawk,2013-09-01 10:54:00,
2013-09-01 06:59:00,69.6,59.0,30.04,East,96,0.0,-999.0,69,0.00,,,0.00,1,WeatherHawk,2013-09-01 10:59:00,
2013-09-01 07:04:00,70.1,59.0,30.05,East,96,0.0,-999.0,68,0.00,,,0.00,2,WeatherHawk,2013-09-01 11:04:00,
2013-09-01 07:09:00,68.4,57.4,30.05,East,96,0.0,-999.0,68,0.00,,,0.00,3,WeatherHawk,2013-09-01 11:09:00,
2013-09-01 07:14:00,69.2,59.0,30.05,NNE,15,0.0,-999.0,70,0.00,,,0.00,6,WeatherHawk,2013-09-01 11:14:00,
2013-09-01 07:19:00,68.8,58.2,30.05,NNE,15,0.0,-999.0,69,0.00,,,0.00,11,WeatherHawk,2013-09-01 11:19:00,
2013-09-01 07:24:00,68.9,58.3,30.04,NNE,14,0.0,-999.0,69,0.00,,,0.00,12,WeatherHawk,2013-09-01 11:24:00,
2013-09-01 07:29:00,69.1,58.5,30.05,NNE,15,0.0,-999.0,69,0.00,,,0.00,20,WeatherHawk,2013-09-01 11:29:00,
2013-09-01 07:34:00,68.6,58.0,30.05,NNE,17,0.0,-999.0,69,0.00,,,0.00,24,WeatherHawk,2013-09-01 11:34:00,
2013-09-01 07:39:00,70.0,58.9,30.05,ESE,113,0.0,-999.0,68,0.00,,,0.00,30,WeatherHawk,2013-09-01 11:39:00,
2013-09-01 07:44:00,69.8,57.5,30.06,ESE,112,0.0,-999.0,65,0.00,,,0.00,33,WeatherHawk,2013-09-01 11:44:00,
2013-09-01 07:49:00,69.5,57.2,30.05,ESE,111,0.0,-999.0,65,0.00,,,0.00,40,WeatherHawk,2013-09-01 11:49:00,
2013-09-01 07:54:00,69.3,57.4,30.04,ESE,111,0.0,-999.0,66,0.00,,,0.00,52,WeatherHawk,2013-09-01 11:54:00,
2013-09-01 07:59:00,69.6,57.3,30.05,NNE,28,0.0,-999.0,65,0.00,,,0.00,63,WeatherHawk,2013-09-01 11:59:00,
2013-09-01 08:05:00,70.5,57.8,30.05,NNE,28,0.0,-999.0,64,0.00,,,0.00,69,WeatherHawk,2013-09-01 12:05:00,
2013-09-01 08:14:00,70.3,56.2,30.05,NNE,28,0.0,-999.0,61,0.00,,,0.00,84,WeatherHawk,2013-09-01 12:14:00,
2013-09-01 08:19:00,70.8,56.6,30.05,NNE,28,0.0,-999.0,61,0.00,,,0.00,92,WeatherHawk,2013-09-01 12:19:00,
2013-09-01 08:24:00,71.5,56.4,30.05,NNE,28,0.0,-999.0,59,0.00,,,0.00,100,WeatherHawk,2013-09-01 12:24:00,
2013-09-01 08:29:00,71.6,54.0,30.04,NE,35,0.0,-999.0,54,0.00,,,0.00,112,WeatherHawk,2013-09-01 12:29:00,
2013-09-01 08:34:00,72.1,52.9,30.04,NNE,27,0.0,-999.0,51,0.00,,,0.00,133,WeatherHawk,2013-09-01 12:34:00,
2013-09-01 08:39:00,71.7,50.3,30.05,South,190,0.0,-999.0,47,0.00,,,0.00,147,WeatherHawk,2013-09-01 12:39:00,
2013-09-01 08:44:00,73.3,51.8,30.04,SE,133,0.0,-999.0,47,0.00,,,0.00,148,WeatherHawk,2013-09-01 12:44:00,
2013-09-01 08:49:00,72.7,50.7,30.04,SE,134,0.0,-999.0,46,0.00,,,0.00,141,WeatherHawk,2013-09-01 12:49:00,
2013-09-01 08:54:00,72.0,49.5,30.06,South,172,0.0,-999.0,45,0.00,,,0.00,141,WeatherHawk,2013-09-01 12:54:00,
2013-09-01 08:59:00,72.1,49.5,30.04,South,170,0.0,-999.0,45,0.00,,,0.00,139,WeatherHawk,2013-09-01 12:59:00,
2013-09-01 09:04:00,72.1,49.0,30.05,SSE,164,0.0,-999.0,44,0.00,,,0.00,138,WeatherHawk,2013-09-01 13:04:00,
2013-09-01 09:09:00,72.9,49.1,30.05,South,174,0.0,-999.0,43,0.00,,,0.00,150,WeatherHawk,2013-09-01 13:09:00,
2013-09-01 09:14:00,72.8,48.9,30.05,SE,143,0.0,-999.0,43,0.00,,,0.00,156,WeatherHawk,2013-09-01 13:14:00,
2013-09-01 09:19:00,72.4,47.4,30.04,SSE,159,0.0,-999.0,41,0.00,,,0.00,161,WeatherHawk,2013-09-01 13:19:00,
2013-09-01 09:24:00,74.1,48.2,30.04,SSE,147,0.0,-999.0,40,0.00,,,0.00,180,WeatherHawk,2013-09-01 13:24:00,
2013-09-01 09:29:00,72.8,45.0,30.04,ESE,123,1.0,-999.0,37,0.00,,,0.00,182,WeatherHawk,2013-09-01 13:29:00,
2013-09-01 09:34:00,73.3,44.7,30.05,SE,127,0.0,-999.0,36,0.00,,,0.00,222,WeatherHawk,2013-09-01 13:34:00,
2013-09-01 09:39:00,75.4,46.6,30.04,SW,218,0.0,-999.0,36,0.00,,,0.00,217,WeatherHawk,2013-09-01 13:39:00,
2013-09-01 09:44:00,74.6,45.1,30.04,WSW,253,0.0,-999.0,35,0.00,,,0.00,206,WeatherHawk,2013-09-01 13:44:00,
2013-09-01 09:49:00,74.1,42.4,30.05,South,183,0.0,-999.0,32,0.00,,,0.00,228,WeatherHawk,2013-09-01 13:49:00,
2013-09-01 09:54:00,75.4,43.5,30.04,SE,138,0.0,-999.0,32,0.00,,,0.00,401,WeatherHawk,2013-09-01 13:54:00,
2013-09-01 09:59:00,74.6,41.1,30.05,South,177,4.0,-999.0,30,0.00,,,0.00,313,WeatherHawk,2013-09-01 13:59:00,
2013-09-01 10:04:00,78.0,42.2,30.03,WSW,258,0.0,-999.0,28,0.00,,,0.00,407,WeatherHawk,2013-09-01 14:04:00,
2013-09-01 10:09:00,77.2,40.6,30.03,South,175,2.0,-999.0,27,0.00,,,0.00,525,WeatherHawk,2013-09-01 14:09:00,
2013-09-01 10:14:00,76.9,39.4,30.03,SSE,152,2.0,-999.0,26,0.00,,,0.00,488,WeatherHawk,2013-09-01 14:14:00,
2013-09-01 10:19:00,78.1,38.4,30.04,SE,141,4.0,-999.0,24,0.00,,,0.00,523,WeatherHawk,2013-09-01 14:19:00,
2013-09-01 10:24:00,77.7,38.0,30.03,SE,139,2.0,-999.0,24,0.00,,,0.00,526,WeatherHawk,2013-09-01 14:24:00,
2013-09-01 10:29:00,77.1,38.6,30.02,South,173,5.0,-999.0,25,0.00,,,0.00,574,WeatherHawk,2013-09-01 14:29:00,
2013-09-01 10:34:00,78.0,33.7,30.01,South,170,3.0,-999.0,20,0.00,,,0.00,572,WeatherHawk,2013-09-01 14:34:00,
2013-09-01 10:39:00,79.6,35.0,30.03,WSW,249,4.0,-999.0,20,0.00,,,0.00,573,WeatherHawk,2013-09-01 14:39:00,
2013-09-01 10:44:00,77.4,31.9,30.02,SSE,159,2.0,-999.0,19,0.00,,,0.00,563,WeatherHawk,2013-09-01 14:44:00,
2013-09-01 10:49:00,80.9,36.1,30.02,WNW,284,1.0,-999.0,20,0.00,,,0.00,558,WeatherHawk,2013-09-01 14:49:00,
2013-09-01 10:54:00,78.8,33.1,30.02,SSE,156,2.0,-999.0,19,0.00,,,0.00,589,WeatherHawk,2013-09-01 14:54:00,
2013-09-01 10:59:00,78.3,33.9,30.01,SSE,158,1.0,-999.0,20,0.00,,,0.00,605,WeatherHawk,2013-09-01 14:59:00,
2013-09-01 11:04:00,80.7,33.3,30.00,SSW,211,0.0,-999.0,18,0.00,,,0.00,626,WeatherHawk,2013-09-01 15:04:00,
2013-09-01 11:09:00,80.4,31.6,30.02,SW,231,2.0,-999.0,17,0.00,,,0.00,641,WeatherHawk,2013-09-01 15:09:00,
2013-09-01 11:14:00,81.8,31.2,30.02,West,268,2.0,-999.0,16,0.00,,,0.00,675,WeatherHawk,2013-09-01 15:14:00,
2013-09-01 11:19:00,77.9,26.5,30.02,South,181,6.0,-999.0,15,0.00,,,0.00,709,WeatherHawk,2013-09-01 15:19:00,
2013-09-01 11:24:00,81.0,30.5,30.01,South,190,1.0,-999.0,16,0.00,,,0.00,726,WeatherHawk,2013-09-01 15:24:00,
2013-09-01 11:29:00,82.0,29.8,30.00,WSW,238,1.0,-999.0,15,0.00,,,0.00,719,WeatherHawk,2013-09-01 15:29:00,
2013-09-01 11:34:00,79.6,27.9,30.02,SE,145,0.0,-999.0,15,0.00,,,0.00,749,WeatherHawk,2013-09-01 15:34:00,
2013-09-01 11:39:00,82.7,31.9,30.02,West,263,0.0,-999.0,16,0.00,,,0.00,478,WeatherHawk,2013-09-01 15:39:00,
2013-09-01 11:44:00,85.0,30.5,30.01,WNW,301,1.0,-999.0,14,0.00,,,0.00,905,WeatherHawk,2013-09-01 15:44:00,
2013-09-01 11:49:00,80.2,28.3,30.02,SSE,168,6.0,-999.0,15,0.00,,,0.00,280,WeatherHawk,2013-09-01 15:49:00,
2013-09-01 11:54:00,79.9,28.1,30.02,SSW,208,5.0,-999.0,15,0.00,,,0.00,278,WeatherHawk,2013-09-01 15:54:00,
2013-09-01 12:00:00,83.5,31.0,30.03,SW,225,1.0,-999.0,15,0.00,,,0.00,915,WeatherHawk,2013-09-01 16:00:00,
2013-09-01 12:09:00,82.0,26.3,30.01,WNW,289,0.0,-999.0,13,0.00,,,0.00,590,WeatherHawk,2013-09-01 16:09:00,
2013-09-01 12:14:00,85.2,28.8,30.00,SW,230,1.0,-999.0,13,0.00,,,0.00,438,WeatherHawk,2013-09-01 16:14:00,
2013-09-01 12:19:00,79.1,29.0,30.01,South,186,3.0,-999.0,16,0.00,,,0.00,333,WeatherHawk,2013-09-01 16:19:00,
2013-09-01 12:24:00,79.2,33.4,30.01,South,188,6.0,-999.0,19,0.00,,,0.00,286,WeatherHawk,2013-09-01 16:24:00,
2013-09-01 12:29:00,78.8,33.1,30.01,SSE,151,5.0,-999.0,19,0.00,,,0.00,297,WeatherHawk,2013-09-01 16:29:00,
2013-09-01 12:34:00,80.0,34.0,30.00,South,177,5.0,-999.0,19,0.00,,,0.00,312,WeatherHawk,2013-09-01 16:34:00,
2013-09-01 12:39:00,80.1,34.1,30.02,SW,217,2.0,-999.0,19,0.00,,,0.00,321,WeatherHawk,2013-09-01 16:39:00,
2013-09-01 12:44:00,80.6,35.8,30.01,West,268,3.0,-999.0,20,0.00,,,0.00,325,WeatherHawk,2013-09-01 16:44:00,
2013-09-01 12:49:00,81.3,36.4,30.02,WNW,286,1.0,-999.0,20,0.00,,,0.00,320,WeatherHawk,2013-09-01 16:49:00,
2013-09-01 12:54:00,79.4,33.5,30.02,WSW,245,4.0,-999.0,19,0.00,,,0.00,341,WeatherHawk,2013-09-01 16:54:00,
2013-09-01 12:59:00,78.9,35.6,30.03,West,266,4.0,-999.0,21,0.00,,,0.00,354,WeatherHawk,2013-09-01 16:59:00,
2013-09-01 13:04:00,80.2,35.4,30.01,WNW,300,0.0,-999.0,20,0.00,,,0.00,372,WeatherHawk,2013-09-01 17:04:00,
2013-09-01 13:09:00,81.4,35.1,30.01,West,266,1.0,-999.0,19,0.00,,,0.00,377,WeatherHawk,2013-09-01 17:09:00,
2013-09-01 13:14:00,80.8,33.4,30.01,WNW,289,3.0,-999.0,18,0.00,,,0.00,421,WeatherHawk,2013-09-01 17:14:00,
2013-09-01 13:19:00,80.1,32.7,30.02,South,180,2.0,-999.0,18,0.00,,,0.00,428,WeatherHawk,2013-09-01 17:19:00,
2013-09-01 13:24:00,80.9,33.4,30.03,WSW,248,4.0,-999.0,18,0.00,,,0.00,528,WeatherHawk,2013-09-01 17:24:00,
2013-09-01 13:29:00,82.9,32.1,30.02,WNW,294,0.0,-999.0,16,0.00,,,0.00,768,WeatherHawk,2013-09-01 17:29:00,
2013-09-01 13:34:00,81.3,29.2,30.00,SSE,157,2.0,-999.0,15,0.00,,,0.00,893,WeatherHawk,2013-09-01 17:34:00,
2013-09-01 13:39:00,83.5,32.6,30.00,South,170,4.0,-999.0,16,0.00,,,0.00,960,WeatherHawk,2013-09-01 17:39:00,
2013-09-01 13:44:00,79.9,28.1,30.01,SSE,150,5.0,-999.0,15,0.00,,,0.00,443,WeatherHawk,2013-09-01 17:44:00,
2013-09-01 13:49:00,83.7,27.7,29.99,West,265,0.0,-999.0,13,0.00,,,0.00,1006,WeatherHawk,2013-09-01 17:49:00,
2013-09-01 13:54:00,80.7,31.8,30.01,SE,142,2.0,-999.0,17,0.00,,,0.00,289,WeatherHawk,2013-09-01 17:54:00,
2013-09-01 13:59:00,82.5,26.7,30.01,SSW,196,1.0,-999.0,13,0.00,,,0.00,971,WeatherHawk,2013-09-01 17:59:00,
2013-09-01 14:04:00,84.1,31.5,30.01,SSW,210,0.0,-999.0,15,0.00,,,0.00,934,WeatherHawk,2013-09-01 18:04:00,
2013-09-01 14:09:00,82.2,26.5,29.99,SSE,154,4.0,-999.0,13,0.00,,,0.00,864,WeatherHawk,2013-09-01 18:09:00,
2013-09-01 14:14:00,86.0,25.4,29.99,ESE,105,3.0,-999.0,11,0.00,,,0.00,970,WeatherHawk,2013-09-01 18:14:00,
2013-09-01 14:19:00,80.2,26.7,30.00,SSE,162,4.0,-999.0,14,0.00,,,0.00,431,WeatherHawk,2013-09-01 18:19:00,
2013-09-01 14:24:00,82.2,31.6,29.99,SSW,192,2.0,-999.0,16,0.00,,,0.00,302,WeatherHawk,2013-09-01 18:24:00,
2013-09-01 14:29:00,83.8,29.5,29.99,SSE,167,3.0,-999.0,14,0.00,,,0.00,420,WeatherHawk,2013-09-01 18:29:00,
2013-09-01 14:34:00,82.7,28.6,29.99,WNW,292,4.0,-999.0,14,0.00,,,0.00,304,WeatherHawk,2013-09-01 18:34:00,
2013-09-01 14:39:00,85.0,28.6,29.99,SE,134,4.0,-999.0,13,0.00,,,0.00,776,WeatherHawk,2013-09-01 18:39:00,
2013-09-01 14:44:00,83.7,29.4,29.99,SSE,154,5.0,-999.0,14,0.00,,,0.00,455,WeatherHawk,2013-09-01 18:44:00,
2013-09-01 14:49:00,84.9,30.4,29.97,SW,214,0.0,-999.0,14,0.00,,,0.00,552,WeatherHawk,2013-09-01 18:49:00,
2013-09-01 14:54:00,81.9,24.3,29.99,South,178,3.0,-999.0,12,0.00,,,0.00,301,WeatherHawk,2013-09-01 18:54:00,
2013-09-01 14:59:00,86.5,25.7,29.98,SE,133,1.0,-999.0,11,0.00,,,0.00,866,WeatherHawk,2013-09-01 18:59:00,
2013-09-01 15:04:00,85.3,28.9,29.97,SW,225,4.0,-999.0,13,0.00,,,0.00,388,WeatherHawk,2013-09-01 19:04:00,
2013-09-01 15:09:00,84.4,21.9,29.99,ESE,106,0.0,-999.0,10,0.00,,,0.00,335,WeatherHawk,2013-09-01 19:09:00,
2013-09-01 15:14:00,85.2,24.7,29.97,NW,321,0.0,-999.0,11,0.00,,,0.00,385,WeatherHawk,2013-09-01 19:14:00,
2013-09-01 15:19:00,86.2,23.3,29.97,WSW,254,0.0,-999.0,10,0.00,,,0.00,366,WeatherHawk,2013-09-01 19:19:00,
2013-09-01 15:24:00,83.3,21.0,29.97,WSW,243,0.0,-999.0,10,0.00,,,0.00,512,WeatherHawk,2013-09-01 19:24:00,
2013-09-01 15:29:00,82.3,28.4,29.97,SSE,160,5.0,-999.0,14,0.00,,,0.00,626,WeatherHawk,2013-09-01 19:29:00,
2013-09-01 15:34:00,87.6,28.7,29.95,WSW,240,0.0,-999.0,12,0.00,,,0.00,811,WeatherHawk,2013-09-01 19:34:00,
2013-09-01 15:39:00,85.4,22.6,29.96,WSW,255,2.0,-999.0,10,0.00,,,0.00,441,WeatherHawk,2013-09-01 19:39:00,
2013-09-01 15:44:00,86.7,28.0,29.95,SW,236,4.0,-999.0,12,0.00,,,0.00,508,WeatherHawk,2013-09-01 19:44:00,
2013-09-01 15:49:00,85.1,26.8,29.95,West,278,6.0,-999.0,12,0.00,,,0.00,240,WeatherHawk,2013-09-01 19:49:00,
2013-09-01 15:54:00,84.8,26.5,29.93,South,171,0.0,-999.0,12,0.00,,,0.00,456,WeatherHawk,2013-09-01 19:54:00,
2013-09-01 15:59:00,84.8,30.3,29.96,NW,324,1.0,-999.0,14,0.00,,,0.00,363,WeatherHawk,2013-09-01 19:59:00,
2013-09-01 16:04:00,84.7,30.2,29.96,SSE,160,3.0,-999.0,14,0.00,,,0.00,321,WeatherHawk,2013-09-01 20:04:00,
2013-09-01 16:09:00,85.1,26.8,29.95,North,1,4.0,-999.0,12,0.00,,,0.00,760,WeatherHawk,2013-09-01 20:09:00,
2013-09-01 16:14:00,82.5,26.7,29.96,SSE,161,2.0,-999.0,13,0.00,,,0.00,311,WeatherHawk,2013-09-01 20:14:00,
2013-09-01 16:19:00,85.6,30.9,29.94,West,280,0.0,-999.0,14,0.00,,,0.00,578,WeatherHawk,2013-09-01 20:19:00,
2013-09-01 16:24:00,86.8,28.1,29.94,ESE,119,3.0,-999.0,12,0.00,,,0.00,695,WeatherHawk,2013-09-01 20:24:00,
2013-09-01 16:29:00,82.5,28.5,29.95,South,170,7.0,-999.0,14,0.00,,,0.00,697,WeatherHawk,2013-09-01 20:29:00,
2013-09-01 16:34:00,82.9,30.5,29.96,South,170,7.0,-999.0,15,0.00,,,0.00,488,WeatherHawk,2013-09-01 20:34:00,
2013-09-01 16:39:00,83.3,30.8,29.96,SSE,168,4.0,-999.0,15,0.00,,,0.00,166,WeatherHawk,2013-09-01 20:39:00,
2013-09-01 16:44:00,86.7,31.8,29.94,SSE,159,0.0,-999.0,14,0.00,,,0.00,606,WeatherHawk,2013-09-01 20:44:00,
2013-09-01 16:49:00,86.6,29.9,29.94,NE,56,3.0,-999.0,13,0.00,,,0.00,675,WeatherHawk,2013-09-01 20:49:00,
2013-09-01 16:54:00,84.5,31.8,29.95,SE,142,4.0,-999.0,15,0.00,,,0.00,624,WeatherHawk,2013-09-01 20:54:00,
2013-09-01 16:59:00,85.3,34.0,29.96,SSE,160,0.0,-999.0,16,0.00,,,0.00,181,WeatherHawk,2013-09-01 20:59:00,
2013-09-01 17:04:00,83.5,30.9,29.96,SSE,167,3.0,-999.0,15,0.00,,,0.00,561,WeatherHawk,2013-09-01 21:04:00,
2013-09-01 17:09:00,85.1,24.7,29.94,West,261,0.0,-999.0,11,0.00,,,0.00,516,WeatherHawk,2013-09-01 21:09:00,
2013-09-01 17:14:00,86.8,31.9,29.96,SW,230,3.0,-999.0,14,0.00,,,0.00,549,WeatherHawk,2013-09-01 21:14:00,
2013-09-01 17:19:00,84.0,31.4,29.94,SSE,159,4.0,-999.0,15,0.00,,,0.00,185,WeatherHawk,2013-09-01 21:19:00,
2013-09-01 17:24:00,82.7,31.9,29.95,SSE,167,3.0,-999.0,16,0.00,,,0.00,224,WeatherHawk,2013-09-01 21:24:00,
2013-09-01 17:29:00,85.9,31.2,29.95,South,171,0.0,-999.0,14,0.00,,,0.00,508,WeatherHawk,2013-09-01 21:29:00,
2013-09-01 17:34:00,84.3,33.2,29.94,SSE,165,5.0,-999.0,16,0.00,,,0.00,454,WeatherHawk,2013-09-01 21:34:00,
2013-09-01 17:39:00,85.3,30.6,29.93,WNW,300,3.0,-999.0,14,0.00,,,0.00,206,WeatherHawk,2013-09-01 21:39:00,
2013-09-01 17:44:00,84.9,32.1,29.95,SW,228,3.0,-999.0,15,0.00,,,0.00,415,WeatherHawk,2013-09-01 21:44:00,
2013-09-01 17:49:00,83.7,32.7,29.95,SE,144,7.0,-999.0,16,0.00,,,0.00,374,WeatherHawk,2013-09-01 21:49:00,
2013-09-01 17:54:00,86.1,31.3,29.94,SSE,165,4.0,-999.0,14,0.00,,,0.00,351,WeatherHawk,2013-09-01 21:54:00,
2013-09-01 17:59:00,86.2,31.4,29.95,SW,222,0.0,-999.0,14,0.00,,,0.00,334,WeatherHawk,2013-09-01 21:59:00,
2013-09-01 18:04:00,84.4,30.0,29.96,SSE,153,5.0,-999.0,14,0.00,,,0.00,320,WeatherHawk,2013-09-01 22:04:00,
2013-09-01 18:09:00,84.2,29.8,29.94,WNW,291,2.0,-999.0,14,0.00,,,0.00,303,WeatherHawk,2013-09-01 22:09:00,
2013-09-01 18:14:00,83.0,30.5,29.94,SSE,164,6.0,-999.0,15,0.00,,,0.00,284,WeatherHawk,2013-09-01 22:14:00,
2013-09-01 18:19:00,82.7,33.4,29.94,SSE,168,6.0,-999.0,17,0.00,,,0.00,268,WeatherHawk,2013-09-01 22:19:00,
2013-09-01 18:24:00,84.5,33.4,29.95,SE,145,6.0,-999.0,16,0.00,,,0.00,251,WeatherHawk,2013-09-01 22:24:00,
2013-09-01 18:29:00,82.3,33.1,29.96,South,169,7.0,-999.0,17,0.00,,,0.00,250,WeatherHawk,2013-09-01 22:29:00,
2013-09-01 18:34:00,83.9,34.4,29.95,South,173,4.0,-999.0,17,0.00,,,0.00,231,WeatherHawk,2013-09-01 22:34:00,
2013-09-01 18:39:00,83.4,36.8,29.96,SE,144,2.0,-999.0,19,0.00,,,0.00,57,WeatherHawk,2013-09-01 22:39:00,
2013-09-01 18:44:00,82.9,36.4,29.96,SSE,149,6.0,-999.0,19,0.00,,,0.00,202,WeatherHawk,2013-09-01 22:44:00,
2013-09-01 18:49:00,82.9,35.0,29.97,SSE,163,4.0,-999.0,18,0.00,,,0.00,188,WeatherHawk,2013-09-01 22:49:00,
2013-09-01 18:54:00,82.7,36.2,29.96,South,173,5.0,-999.0,19,0.00,,,0.00,170,WeatherHawk,2013-09-01 22:54:00,
2013-09-01 18:59:00,82.1,37.1,29.97,SSE,150,6.0,-999.0,20,0.00,,,0.00,152,WeatherHawk,2013-09-01 22:59:00,
2013-09-01 19:04:00,82.2,37.1,29.97,SSE,153,3.0,-999.0,20,0.00,,,0.00,125,WeatherHawk,2013-09-01 23:04:00,
2013-09-01 19:09:00,81.8,38.0,29.96,SSE,162,4.0,-999.0,21,0.00,,,0.00,113,WeatherHawk,2013-09-01 23:09:00,
2013-09-01 19:14:00,82.4,38.5,29.97,SSE,148,4.0,-999.0,21,0.00,,,0.00,102,WeatherHawk,2013-09-01 23:14:00,
2013-09-01 19:19:00,82.0,39.3,29.97,SSE,168,3.0,-999.0,22,0.00,,,0.00,92,WeatherHawk,2013-09-01 23:19:00,
2013-09-01 19:24:00,81.0,39.7,29.97,South,183,2.0,-999.0,23,0.00,,,0.00,81,WeatherHawk,2013-09-01 23:24:00,
2013-09-01 19:29:00,80.8,40.6,29.97,SSE,166,0.0,-999.0,24,0.00,,,0.00,67,WeatherHawk,2013-09-01 23:29:00,
2013-09-01 19:34:00,81.3,42.1,29.97,SSW,210,0.0,-999.0,25,0.00,,,0.00,55,WeatherHawk,2013-09-01 23:34:00,
2013-09-01 19:39:00,80.3,42.2,29.98,SSE,154,0.0,-999.0,26,0.00,,,0.00,40,WeatherHawk,2013-09-01 23:39:00,
2013-09-01 19:44:00,79.9,43.8,29.96,SSE,156,0.0,-999.0,28,0.00,,,0.00,21,WeatherHawk,2013-09-01 23:44:00,
2013-09-01 19:49:00,80.1,43.1,29.98,SSE,161,0.0,-999.0,27,0.00,,,0.00,9,WeatherHawk,2013-09-01 23:49:00,
2013-09-01 19:54:00,76.0,44.8,29.96,WNW,298,0.0,-999.0,33,0.00,,,0.00,6,WeatherHawk,2013-09-01 23:54:00,
2013-09-01 19:59:00,76.8,47.0,29.99,East,87,0.0,-999.0,35,0.00,,,0.00,4,WeatherHawk,2013-09-01 23:59:00,
2013-09-01 20:04:00,75.9,47.7,29.98,SE,143,0.0,-999.0,37,0.00,,,0.00,0,WeatherHawk,2013-09-02 00:04:00,
2013-09-01 20:09:00,74.9,49.6,29.99,SW,231,0.0,-999.0,41,0.00,,,0.00,0,WeatherHawk,2013-09-02 00:09:00,
2013-09-01 20:14:00,75.0,51.0,30.00,SW,231,0.0,-999.0,43,0.00,,,0.00,1,WeatherHawk,2013-09-02 00:14:00,
2013-09-01 20:20:00,74.8,52.0,30.00,SW,231,0.0,-999.0,45,0.00,,,0.00,0,WeatherHawk,2013-09-02 00:20:00,
2013-09-01 20:29:00,73.7,53.4,30.00,WSW,250,0.0,-999.0,49,0.00,,,0.00,0,WeatherHawk,2013-09-02 00:29:00,
2013-09-01 20:34:00,73.1,53.9,30.00,SSE,154,0.0,-999.0,51,0.00,,,0.00,1,WeatherHawk,2013-09-02 00:34:00,
2013-09-01 20:39:00,73.4,54.7,30.01,SSE,154,0.0,-999.0,52,0.00,,,0.00,0,WeatherHawk,2013-09-02 00:39:00,
2013-09-01 20:44:00,73.0,55.4,30.01,SSE,154,0.0,-999.0,54,0.00,,,0.00,0,WeatherHawk,2013-09-02 00:44:00,
2013-09-01 20:49:00,72.5,55.4,30.01,SW,222,0.0,-999.0,55,0.00,,,0.00,0,WeatherHawk,2013-09-02 00:49:00,
2013-09-01 20:55:00,72.2,55.6,30.01,SW,222,0.0,-999.0,56,0.00,,,0.00,0,WeatherHawk,2013-09-02 00:55:00,
2013-09-01 21:05:00,72.0,56.4,30.01,SW,219,0.0,-999.0,58,0.00,,,0.00,1,WeatherHawk,2013-09-02 01:05:00,
2013-09-01 21:14:00,71.9,57.2,30.01,NNW,339,0.0,-999.0,60,0.00,,,0.00,0,WeatherHawk,2013-09-02 01:14:00,
2013-09-01 21:19:00,71.7,57.1,30.01,West,279,0.0,-999.0,60,0.00,,,0.00,0,WeatherHawk,2013-09-02 01:19:00,
2013-09-01 21:24:00,71.9,57.7,30.01,NNW,330,0.0,-999.0,61,0.00,,,0.00,0,WeatherHawk,2013-09-02 01:24:00,
2013-09-01 21:29:00,71.5,57.4,30.01,West,271,0.0,-999.0,61,0.00,,,0.00,0,WeatherHawk,2013-09-02 01:29:00,
2013-09-01 21:34:00,71.4,57.7,30.01,West,271,0.0,-999.0,62,0.00,,,0.00,2,WeatherHawk,2013-09-02 01:34:00,
2013-09-01 21:39:00,71.2,57.5,30.02,West,271,0.0,-999.0,62,0.00,,,0.00,0,WeatherHawk,2013-09-02 01:39:00,
2013-09-01 21:44:00,71.3,58.0,30.01,West,271,0.0,-999.0,63,0.00,,,0.00,0,WeatherHawk,2013-09-02 01:44:00,
2013-09-01 21:49:00,71.1,58.3,30.01,West,270,0.0,-999.0,64,0.00,,,0.00,0,WeatherHawk,2013-09-02 01:49:00,
2013-09-01 21:54:00,71.1,58.3,30.01,WSW,243,0.0,-999.0,64,0.00,,,0.00,0,WeatherHawk,2013-09-02 01:54:00,
2013-09-01 21:59:00,71.4,59.0,30.02,SSE,167,0.0,-999.0,65,0.00,,,0.00,1,WeatherHawk,2013-09-02 01:59:00,
2013-09-01 22:04:00,71.6,58.8,30.02,West,281,0.0,-999.0,64,0.00,,,0.00,0,WeatherHawk,2013-09-02 02:04:00,
2013-09-01 22:09:00,71.9,58.6,30.02,NW,304,0.0,-999.0,63,0.00,,,0.00,0,WeatherHawk,2013-09-02 02:09:00,
2013-09-01 22:15:00,72.1,58.3,30.02,NW,304,0.0,-999.0,62,0.00,,,0.00,1,WeatherHawk,2013-09-02 02:15:00,
2013-09-01 22:24:00,71.5,57.8,30.02,West,280,0.0,-999.0,62,0.00,,,0.00,0,WeatherHawk,2013-09-02 02:24:00,
2013-09-01 22:29:00,71.8,58.1,30.02,ENE,71,0.0,-999.0,62,0.00,,,0.00,0,WeatherHawk,2013-09-02 02:29:00,
2013-09-01 22:34:00,72.8,58.1,30.02,ENE,71,0.0,-999.0,60,0.00,,,0.00,0,WeatherHawk,2013-09-02 02:34:00,
2013-09-01 22:39:00,71.2,56.1,30.01,NNW,345,0.0,-999.0,59,0.00,,,0.00,1,WeatherHawk,2013-09-02 02:39:00,
2013-09-01 22:44:00,71.5,57.8,30.03,NNW,345,0.0,-999.0,62,0.00,,,0.00,0,WeatherHawk,2013-09-02 02:44:00,
2013-09-01 22:49:00,71.4,58.1,30.03,NE,46,0.0,-999.0,63,0.00,,,0.00,0,WeatherHawk,2013-09-02 02:49:00,
2013-09-01 22:54:00,71.8,58.5,30.02,West,272,0.0,-999.0,63,0.00,,,0.00,1,WeatherHawk,2013-09-02 02:54:00,
2013-09-01 22:59:00,71.4,58.1,30.02,West,271,0.0,-999.0,63,0.00,,,0.00,0,WeatherHawk,2013-09-02 02:59:00,
2013-09-01 23:04:00,71.3,58.5,30.03,NNW,345,0.0,-999.0,64,0.00,,,0.00,0,WeatherHawk,2013-09-02 03:04:00,
2013-09-01 23:09:00,71.1,58.3,30.02,NW,315,0.0,-999.0,64,0.00,,,0.00,0,WeatherHawk,2013-09-02 03:09:00,
2013-09-01 23:14:00,71.1,58.7,30.02,NW,320,0.0,-999.0,65,0.00,,,0.00,0,WeatherHawk,2013-09-02 03:14:00,
2013-09-01 23:19:00,71.4,59.0,30.02,ENE,65,0.0,-999.0,65,0.00,,,0.00,0,WeatherHawk,2013-09-02 03:19:00,
2013-09-01 23:24:00,71.2,58.9,30.02,West,270,0.0,-999.0,65,0.00,,,0.00,0,WeatherHawk,2013-09-02 03:24:00,
2013-09-01 23:29:00,71.8,59.3,30.02,NNE,21,0.0,-999.0,65,0.00,,,0.00,0,WeatherHawk,2013-09-02 03:29:00,
2013-09-01 23:34:00,71.1,58.3,30.02,NE,54,0.0,-999.0,64,0.00,,,0.00,0,WeatherHawk,2013-09-02 03:34:00,
2013-09-01 23:39:00,71.3,58.9,30.02,West,264,0.0,-999.0,65,0.00,,,0.00,0,WeatherHawk,2013-09-02 03:39:00,
2013-09-01 23:44:00,70.8,58.5,30.03,ESE,112,0.0,-999.0,65,0.00,,,0.00,0,WeatherHawk,2013-09-02 03:44:00,
2013-09-01 23:49:00,71.1,59.1,30.03,ESE,102,0.0,-999.0,66,0.00,,,0.00,1,WeatherHawk,2013-09-02 03:49:00,
2013-09-01 23:54:00,70.5,59.0,30.03,East,80,0.0,-999.0,67,0.00,,,0.00,0,WeatherHawk,2013-09-02 03:54:00,
2013-09-01 23:59:00,70.7,59.6,30.03,East,86,0.0,-999.0,68,0.00,,,0.00,1,WeatherHawk,2013-09-02 03:59:00,